Terminal Aerodrome Forecast
Issued by NWS

Home | Current Version | Previous Version | Text Only | Print | Product List | Glossary Off
Versions: 1 2 3 4 5 6 7 8 9 10 11 12 13 14 15 16

000
FTUS43 KMPX 250500
TAFRNH
TAF
KRNH 250531Z 2506/2606 28003KT P6SM SCT030 BKN100
     FM251400 24007KT P6SM SKC
     FM251800 25011G18KT P6SM SKC
     FM260100 30004KT P6SM SCT200=

USA.gov is the U.S. government's official web portal to all federal, state and local government web resources and services.